Time;durP1;ratioP1;P1;durP2;ratioP2;P2;SDS_P1;SDS_P2;PMS_P1;PMS_P2;Temp;Humidity;BMP_temperature;BMP_pressure;BME280_temperature;BME280_humidity;BME280_pressure;Samples;Min_cycle;Max_cycle;Signal;HPM_P1;HPM_P2
2023/11/17 00:01:56;;;;;;;0.10;0.10;;;;;;;7.12;76.36;100842.50;7366015;19;20014;-63
2023/11/17 00:04:21;;;;;;;0.10;0.10;;;;;;;7.15;76.23;100845.06;7366175;19;20011;-63
2023/11/17 00:06:47;;;;;;;0.00;0.00;;;;;;;7.17;75.68;100852.84;7368294;19;20007;-63
2023/11/17 00:09:13;;;;;;;0.00;0.00;;;;;;;7.17;75.48;100845.91;7365872;19;20029;-63
2023/11/17 00:11:39;;;;;;;0.08;0.08;;;;;;;7.05;75.74;100833.03;7365754;19;20025;-62
2023/11/17 00:14:05;;;;;;;0.00;0.00;;;;;;;7.16;75.66;100835.53;7362977;19;20003;-63
2023/11/17 00:16:30;;;;;;;0.00;0.00;;;;;;;7.15;75.74;100833.84;7365845;19;20010;-63
2023/11/17 00:18:56;;;;;;;0.10;0.10;;;;;;;7.16;76.14;100830.34;7362519;19;20018;-63
2023/11/17 00:21:21;;;;;;;0.00;0.00;;;;;;;7.14;75.79;100821.69;7361995;19;20014;-63
2023/11/17 00:23:47;;;;;;;0.00;0.00;;;;;;;7.21;75.76;100833.78;7360391;19;20473;-63
2023/11/17 00:26:12;;;;;;;0.00;0.00;;;;;;;7.14;75.87;100821.69;7366380;19;20027;-64
2023/11/17 00:29:11;;;;;;;0.10;0.10;;;;;;;7.29;75.60;100848.41;7364775;19;20015;-63
2023/11/17 00:31:37;;;;;;;0.08;0.08;;;;;;;7.12;75.80;100813.06;7368787;19;20010;-63
2023/11/17 00:34:03;;;;;;;0.00;0.00;;;;;;;7.26;76.01;100851.06;7368141;19;20017;-64
2023/11/17 00:36:29;;;;;;;0.00;0.00;;;;;;;7.32;75.88;100863.13;7365211;19;20010;-63
2023/11/17 00:38:54;;;;;;;0.00;0.00;;;;;;;7.15;76.21;100824.31;7363480;19;20025;-63
2023/11/17 00:41:19;;;;;;;0.05;0.05;;;;;;;7.38;76.01;100857.03;7357752;19;20014;-64
2023/11/17 00:43:45;;;;;;;0.00;0.00;;;;;;;7.37;75.98;100858.78;7368462;19;20011;-63
2023/11/17 00:46:11;;;;;;;0.00;0.00;;;;;;;7.35;76.46;100857.03;7365655;19;20003;-63
2023/11/17 00:48:37;;;;;;;0.00;0.00;;;;;;;7.44;75.96;100873.44;7362188;19;20014;-64
2023/11/17 00:51:03;;;;;;;0.07;0.07;;;;;;;7.41;75.98;100852.69;7366786;19;20026;-64
2023/11/17 00:53:32;;;;;;;0.00;0.00;;;;;;;7.12;76.26;100805.28;7360910;19;20048;-63
2023/11/17 00:55:58;;;;;;;0.00;0.00;;;;;;;7.47;75.80;100850.03;7366128;19;20025;-63
2023/11/17 00:58:25;;;;;;;0.00;0.00;;;;;;;7.50;75.70;100854.34;7358099;19;20018;-63
2023/11/17 01:00:56;;;;;;;0.03;0.03;;;;;;;7.41;75.52;100831.91;7364050;19;20375;-63
2023/11/17 01:03:22;;;;;;;0.00;0.00;;;;;;;7.52;75.51;100856.06;7362577;19;20019;-64
2023/11/17 01:05:48;;;;;;;0.00;0.00;;;;;;;7.53;75.40;100837.00;7363254;19;20018;-63
2023/11/17 01:08:13;;;;;;;0.10;0.10;;;;;;;7.58;75.89;100855.16;7362417;19;20022;-64
2023/11/17 01:10:39;;;;;;;0.00;0.00;;;;;;;7.59;75.61;100846.47;7365306;19;20819;-63
2023/11/17 01:13:05;;;;;;;0.00;0.00;;;;;;;7.58;75.74;100828.31;7361562;19;20015;-63
2023/11/17 01:15:35;;;;;;;0.10;0.10;;;;;;;7.60;75.42;100848.19;7365567;19;20498;-64
2023/11/17 01:18:01;;;;;;;0.10;0.10;;;;;;;7.60;75.38;100842.13;7361425;19;20009;-64
2023/11/17 01:20:27;;;;;;;0.10;0.10;;;;;;;7.51;75.52;100827.50;7367217;19;20010;-64
2023/11/17 01:22:52;;;;;;;0.00;0.00;;;;;;;7.59;75.42;100850.81;7368577;19;20674;-63
2023/11/17 01:25:17;;;;;;;0.00;0.00;;;;;;;7.56;75.33;100835.25;7360227;19;20002;-63
2023/11/17 01:27:43;;;;;;;0.00;0.00;;;;;;;7.57;75.62;100818.78;7362060;19;20002;-64
2023/11/17 01:30:09;;;;;;;0.10;0.10;;;;;;;7.54;75.45;100835.25;7358278;19;20010;-64
2023/11/17 01:32:34;;;;;;;0.10;0.10;;;;;;;7.58;75.33;100828.31;7361101;19;20118;-63
2023/11/17 01:34:59;;;;;;;0.00;0.00;;;;;;;7.49;75.19;100811.03;7364481;19;20015;-63
2023/11/17 01:37:25;;;;;;;0.00;0.00;;;;;;;7.67;75.05;100831.69;7364257;19;20501;-64
2023/11/17 01:39:51;;;;;;;0.10;0.10;;;;;;;7.60;75.42;100818.75;7364670;19;19995;-64
2023/11/17 01:42:16;;;;;;;0.05;0.05;;;;;;;7.51;75.37;100804.97;7364784;19;20029;-63
2023/11/17 01:44:43;;;;;;;0.00;0.00;;;;;;;7.64;75.32;100817.84;7361770;19;20763;-63
2023/11/17 01:47:09;;;;;;;0.10;0.10;;;;;;;7.69;75.21;100821.25;7364580;19;20022;-64
2023/11/17 01:49:35;;;;;;;0.00;0.00;;;;;;;7.68;75.38;100827.34;7356688;19;20045;-63
2023/11/17 01:52:01;;;;;;;0.10;0.10;;;;;;;7.74;75.52;100861.06;7362524;19;20650;-63
2023/11/17 01:54:26;;;;;;;0.00;0.00;;;;;;;7.75;75.73;100829.00;7362070;19;20007;-62
2023/11/17 01:56:52;;;;;;;0.00;0.00;;;;;;;7.78;75.77;100836.78;7363979;19;20029;-60
2023/11/17 01:59:18;;;;;;;0.00;0.00;;;;;;;7.84;75.28;100846.25;7367012;19;20634;-62
2023/11/17 02:01:45;;;;;;;0.00;0.00;;;;;;;7.70;75.39;100820.38;7354219;19;20031;-62
2023/11/17 02:04:12;;;;;;;0.10;0.10;;;;;;;7.63;75.57;100842.13;7363395;19;20019;-61
2023/11/17 02:06:58;;;;;;;0.08;0.08;;;;;;;7.88;75.60;100863.56;7357160;19;20014;-60
2023/11/17 02:09:50;;;;;;;0.10;0.10;;;;;;;7.88;75.62;100864.41;7363038;19;20043;-61
2023/11/17 02:12:29;;;;;;;0.00;0.00;;;;;;;7.87;75.35;100856.66;7364847;19;20014;-60
2023/11/17 02:15:00;;;;;;;0.10;0.10;;;;;;;7.80;75.14;100848.03;7361950;19;20062;-59
2023/11/17 02:17:28;;;;;;;0.00;0.00;;;;;;;7.87;75.28;100852.31;7360449;19;20021;-61
2023/11/17 02:20:08;;;;;;;0.08;0.08;;;;;;;7.86;75.33;100861.00;7350876;19;20010;-60
2023/11/17 02:22:36;;;;;;;0.03;0.03;;;;;;;7.74;75.68;100835.09;7361028;19;20014;-61
2023/11/17 02:25:17;;;;;;;0.05;0.05;;;;;;;7.76;75.38;100841.16;7355818;19;20489;-62
2023/11/17 02:27:57;;;;;;;0.00;0.00;;;;;;;7.85;75.55;100848.84;7363718;19;20002;-62
2023/11/17 02:30:26;;;;;;;0.10;0.10;;;;;;;7.40;75.61;100788.63;7361454;19;20014;-62
2023/11/17 02:32:54;;;;;;;0.00;0.00;;;;;;;7.76;75.99;100846.34;7360818;19;20011;-62
2023/11/17 02:35:28;;;;;;;0.00;0.00;;;;;;;7.80;75.71;100841.06;7352812;19;20017;-61
2023/11/17 02:38:05;;;;;;;0.00;0.00;;;;;;;7.77;75.64;100840.25;7365478;19;20027;-61
2023/11/17 02:40:31;;;;;;;0.00;0.00;;;;;;;7.64;75.96;100807.44;7348960;19;20085;-62
2023/11/17 02:43:00;;;;;;;0.10;0.10;;;;;;;7.79;75.66;100841.97;7361961;19;20042;-61
2023/11/17 02:45:25;;;;;;;0.10;0.10;;;;;;;7.67;75.84;100804.84;7359182;19;20767;-62
2023/11/17 02:47:57;;;;;;;0.00;0.00;;;;;;;7.71;75.54;100816.94;7362221;19;20018;-62
2023/11/17 02:50:31;;;;;;;0.10;0.10;;;;;;;7.71;75.46;100833.38;7357430;19;20062;-62
2023/11/17 02:55:57;;;;;;;0.10;0.10;;;;;;;7.56;75.50;100820.53;7354465;19;20569;-62
2023/11/17 02:58:24;;;;;;;0.10;0.10;;;;;;;7.69;75.44;100839.47;7355957;19;20034;-62
2023/11/17 03:00:51;;;;;;;0.10;0.10;;;;;;;7.65;75.71;100836.00;7366365;19;20680;-62
2023/11/17 03:03:22;;;;;;;0.10;0.10;;;;;;;7.50;75.61;100805.84;7357118;19;20026;-62
2023/11/17 03:05:55;;;;;;;0.08;0.08;;;;;;;7.62;75.81;100841.25;7359085;19;20781;-63
2023/11/17 03:08:21;;;;;;;0.10;0.10;;;;;;;7.61;75.88;100838.69;7361076;19;20509;-63
2023/11/17 03:10:46;;;;;;;0.08;0.08;;;;;;;7.60;75.55;100847.31;7360161;19;20021;-61
2023/11/17 03:13:15;;;;;;;0.10;0.10;;;;;;;7.58;75.66;100849.94;7365833;19;20023;-62
2023/11/17 03:15:41;;;;;;;0.00;0.00;;;;;;;7.45;75.90;100836.22;7362397;19;20029;-62
2023/11/17 03:18:09;;;;;;;0.03;0.03;;;;;;;7.38;75.55;100820.66;7358222;19;20022;-62
2023/11/17 03:20:35;;;;;;;0.00;0.00;;;;;;;7.56;75.84;100858.66;7363462;19;20025;-62
2023/11/17 03:23:00;;;;;;;0.05;0.05;;;;;;;7.44;75.88;100829.25;7364766;19;20010;-62
2023/11/17 03:25:26;;;;;;;0.05;0.05;;;;;;;7.44;76.18;100844.84;7359924;19;20006;-63
2023/11/17 03:27:51;;;;;;;0.00;0.00;;;;;;;7.50;76.41;100859.53;7351364;19;20044;-63
2023/11/17 03:30:19;;;;;;;0.10;0.10;;;;;;;7.56;76.13;100861.25;7362375;19;20010;-62
2023/11/17 03:32:46;;;;;;;0.00;0.00;;;;;;;7.56;76.10;100867.31;7362267;19;20014;-62
2023/11/17 03:35:12;;;;;;;0.10;0.10;;;;;;;7.54;75.89;100848.25;7363555;19;20706;-63
2023/11/17 03:37:38;;;;;;;0.00;0.00;;;;;;;7.54;76.08;100841.31;7364667;19;20395;-63
2023/11/17 03:40:07;;;;;;;0.10;0.10;;;;;;;7.44;76.06;100834.47;7361233;19;20778;-63
2023/11/17 03:42:34;;;;;;;0.05;0.05;;;;;;;7.51;76.46;100856.94;7352057;19;20031;-63
2023/11/17 03:45:02;;;;;;;0.00;0.00;;;;;;;7.40;76.04;100843.19;7360900;19;20038;-63
2023/11/17 03:47:27;;;;;;;0.10;0.10;;;;;;;7.57;75.99;100868.16;7363730;19;20015;-63
2023/11/17 03:49:53;;;;;;;0.00;0.00;;;;;;;7.53;75.97;100875.09;7363312;19;20015;-62
2023/11/17 03:52:21;;;;;;;0.00;0.00;;;;;;;7.52;76.04;100863.84;7370502;19;20094;-62
2023/11/17 03:54:47;;;;;;;0.10;0.10;;;;;;;7.35;76.01;100847.53;7370674;19;20408;-63
2023/11/17 03:57:12;;;;;;;0.00;0.00;;;;;;;7.40;76.08;100861.38;7358641;19;20086;-63
2023/11/17 03:59:37;;;;;;;0.00;0.00;;;;;;;7.46;75.86;100869.09;7356103;19;20018;-63
2023/11/17 04:02:03;;;;;;;0.10;0.10;;;;;;;7.49;75.80;100884.66;7365577;19;20019;-62
2023/11/17 04:04:29;;;;;;;0.03;0.03;;;;;;;7.33;75.52;100862.25;7360109;19;20014;-63
2023/11/17 04:06:57;;;;;;;0.00;0.00;;;;;;;7.37;75.98;100870.91;7320193;19;20655;-62
2023/11/17 04:09:24;;;;;;;0.00;0.00;;;;;;;7.43;75.71;100886.44;7360672;19;20620;-62
2023/11/17 04:11:51;;;;;;;0.05;0.05;;;;;;;7.46;75.71;100902.88;7368865;19;20066;-62
2023/11/17 04:14:19;;;;;;;0.10;0.10;;;;;;;7.39;75.25;100906.38;7360049;19;20347;-63
2023/11/17 04:16:47;;;;;;;0.00;0.00;;;;;;;7.43;76.08;100902.88;7370603;19;20011;-63
2023/11/17 04:19:14;;;;;;;0.00;0.00;;;;;;;7.41;75.79;100896.84;7343681;19;20050;-63
2023/11/17 04:21:40;;;;;;;0.05;0.05;;;;;;;7.32;75.96;100878.72;7370000;19;20483;-63
2023/11/17 04:24:06;;;;;;;0.10;0.10;;;;;;;7.37;75.70;100892.53;7369385;19;20019;-63
2023/11/17 04:26:31;;;;;;;0.00;0.00;;;;;;;7.35;76.05;100893.41;7374781;19;20892;-63
2023/11/17 04:28:57;;;;;;;0.00;0.00;;;;;;;7.26;76.05;100876.16;7371092;19;20010;-63
2023/11/17 04:31:23;;;;;;;0.00;0.00;;;;;;;7.32;76.31;100904.69;7373926;19;20002;-62
2023/11/17 04:33:49;;;;;;;0.00;0.00;;;;;;;7.22;76.11;100879.66;7349226;19;20614;-63
2023/11/17 04:36:16;;;;;;;0.05;0.05;;;;;;;7.31;76.35;100902.13;7369682;19;20013;-62
2023/11/17 04:38:41;;;;;;;0.00;0.00;;;;;;;7.31;76.53;100907.31;7366935;19;20112;-63
2023/11/17 04:41:07;;;;;;;0.10;0.10;;;;;;;7.02;76.22;100859.84;7368516;19;20752;-62
2023/11/17 04:43:33;;;;;;;0.10;0.10;;;;;;;7.22;76.23;100898.69;7377404;19;20030;-62
2023/11/17 04:45:59;;;;;;;0.10;0.10;;;;;;;6.63;75.92;100802.94;7371322;19;20007;-63
2023/11/17 04:48:25;;;;;;;0.00;0.00;;;;;;;7.18;76.17;100902.16;7373916;19;20027;-63
2023/11/17 04:50:50;;;;;;;0.00;0.00;;;;;;;7.26;75.99;100915.13;7370518;19;20007;-63
2023/11/17 04:53:15;;;;;;;0.00;0.00;;;;;;;7.21;76.51;100911.69;7365905;19;20034;-63
2023/11/17 04:55:44;;;;;;;0.00;0.00;;;;;;;7.24;76.31;100911.66;7366530;19;20086;-63
2023/11/17 04:58:11;;;;;;;0.10;0.10;;;;;;;7.06;76.02;100885.81;7368288;19;20007;-63
2023/11/17 05:00:37;;;;;;;0.05;0.05;;;;;;;7.02;76.19;100878.03;7367534;19;20014;-62
2023/11/17 05:03:03;;;;;;;0.03;0.03;;;;;;;7.21;76.58;100912.56;7363802;19;20018;-62
2023/11/17 05:05:30;;;;;;;0.10;0.10;;;;;;;7.19;76.83;100903.03;7368814;19;20692;-63
2023/11/17 05:07:56;;;;;;;0.05;0.05;;;;;;;7.17;76.47;100909.97;7364316;19;20010;-63
2023/11/17 05:10:22;;;;;;;0.10;0.10;;;;;;;7.11;76.30;100900.50;7371914;19;20495;-62
2023/11/17 05:12:49;;;;;;;0.10;0.10;;;;;;;7.11;76.41;100894.44;7367780;19;20007;-62
2023/11/17 05:15:20;;;;;;;0.08;0.08;;;;;;;7.15;76.66;100903.94;7356224;19;20037;-63
2023/11/17 05:17:48;;;;;;;0.00;0.00;;;;;;;6.84;76.78;100854.75;7368786;19;20023;-63
2023/11/17 05:20:22;;;;;;;0.00;0.00;;;;;;;7.07;75.74;100882.34;7367141;19;20011;-63
2023/11/17 05:22:52;;;;;;;0.00;0.00;;;;;;;7.16;76.32;100903.06;7367285;19;20457;-62
2023/11/17 05:25:18;;;;;;;0.03;0.03;;;;;;;7.07;76.15;100882.34;7364449;19;20022;-63
2023/11/17 05:27:47;;;;;;;0.10;0.10;;;;;;;7.05;76.47;100879.75;7364811;19;19999;-62
2023/11/17 05:30:14;;;;;;;0.00;0.00;;;;;;;7.11;76.59;100889.25;7345460;19;20019;-63
2023/11/17 05:32:44;;;;;;;0.10;0.10;;;;;;;7.15;76.34;100897.00;7367285;19;20015;-63
2023/11/17 05:35:09;;;;;;;0.10;0.10;;;;;;;7.14;75.94;100897.84;7367015;19;19994;-62
2023/11/17 05:37:35;;;;;;;0.00;0.00;;;;;;;7.10;76.06;100883.19;7367930;19;20014;-63
2023/11/17 05:40:00;;;;;;;0.10;0.10;;;;;;;7.05;76.72;100878.91;7360769;19;20036;-61
2023/11/17 05:42:28;;;;;;;0.10;0.10;;;;;;;7.12;76.24;100886.63;7367803;19;20518;-63
2023/11/17 05:44:53;;;;;;;;;;;;;;;7.18;75.29;100890.94;7367418;19;20725;-62
2023/11/17 05:47:19;;;;;;;0.00;0.00;;;;;;;7.01;75.50;100878.91;7364290;19;19914;-63
2023/11/17 05:49:45;;;;;;;0.10;0.10;;;;;;;7.12;75.49;100898.75;7366803;19;20018;-63
2023/11/17 05:52:11;;;;;;;0.00;0.00;;;;;;;7.13;75.65;100903.06;7363227;19;20022;-63
2023/11/17 05:54:44;;;;;;;0.00;0.00;;;;;;;6.94;76.22;100872.00;7366482;19;20010;-63
2023/11/17 05:57:11;;;;;;;0.03;0.03;;;;;;;6.97;76.02;100887.56;7355977;19;20038;-63
2023/11/17 05:59:36;;;;;;;0.00;0.00;;;;;;;7.03;76.24;100891.88;7345090;19;20052;-63
2023/11/17 06:02:03;;;;;;;0.00;0.00;;;;;;;6.94;75.86;100874.59;7369694;19;20015;-62
2023/11/17 06:04:29;;;;;;;0.07;0.07;;;;;;;7.06;75.90;100896.19;7359636;19;20070;-63
2023/11/17 06:06:54;;;;;;;0.00;0.00;;;;;;;6.87;75.96;100875.50;7364681;19;20441;-63
2023/11/17 06:09:19;;;;;;;0.00;0.00;;;;;;;7.06;76.03;100909.19;7356512;19;20408;-63
2023/11/17 06:11:45;;;;;;;0.00;0.00;;;;;;;6.91;76.21;100881.56;7365653;19;20014;-63
2023/11/17 06:14:10;;;;;;;0.10;0.10;;;;;;;7.02;75.96;100910.91;7366016;19;20006;-63
2023/11/17 06:16:37;;;;;;;0.10;0.10;;;;;;;6.96;75.88;100906.63;7373915;19;20498;-63
2023/11/17 06:19:02;;;;;;;0.00;0.00;;;;;;;6.92;76.51;100904.91;7361805;19;20007;-62
2023/11/17 06:21:28;;;;;;;0.00;0.00;;;;;;;7.02;76.23;100922.16;7365869;19;20482;-63
2023/11/17 06:23:53;;;;;;;0.10;0.10;;;;;;;7.01;75.80;100920.44;7350976;19;20007;-64
2023/11/17 06:26:19;;;;;;;0.00;0.00;;;;;;;6.89;76.14;100909.25;7353587;19;20449;-63
2023/11/17 06:28:44;;;;;;;0.10;0.10;;;;;;;6.96;76.31;100927.41;7364473;19;20006;-63
2023/11/17 06:31:11;;;;;;;0.00;0.00;;;;;;;6.86;76.04;100904.06;7366733;19;20500;-63
2023/11/17 06:33:37;;;;;;;0.10;0.10;;;;;;;6.86;75.73;100902.34;7363838;19;20014;-63
2023/11/17 06:36:03;;;;;;;0.08;0.08;;;;;;;6.99;76.28;100927.41;7362131;19;20047;-63
2023/11/17 06:38:29;;;;;;;0.10;0.10;;;;;;;7.03;76.15;100954.19;7365110;19;20006;-63
2023/11/17 06:40:56;;;;;;;0.00;0.00;;;;;;;7.02;76.37;100937.75;7362303;19;20024;-63
2023/11/17 06:43:22;;;;;;;0.00;0.00;;;;;;;7.01;76.24;100946.41;7358709;19;20010;-63
2023/11/17 06:45:52;;;;;;;0.00;0.00;;;;;;;7.01;76.30;100961.13;7364457;19;20011;-62
2023/11/17 06:48:21;;;;;;;0.00;0.00;;;;;;;6.96;76.64;100952.50;7354963;19;20096;-63
2023/11/17 06:50:50;;;;;;;0.10;0.10;;;;;;;7.01;76.14;100966.31;7367463;19;20021;-63
2023/11/17 06:53:15;;;;;;;0.03;0.03;;;;;;;6.99;76.13;100966.34;7364793;19;20034;-63
2023/11/17 06:55:41;;;;;;;0.10;0.10;;;;;;;6.91;76.20;100949.91;7357790;19;20747;-63
2023/11/17 06:58:06;;;;;;;0.00;0.00;;;;;;;6.86;76.33;100943.88;7363111;19;20113;-64
2023/11/17 07:00:32;;;;;;;0.10;0.10;;;;;;;6.96;76.36;100963.75;7362211;19;20025;-67
2023/11/17 07:02:59;;;;;;;0.10;0.10;;;;;;;6.84;76.31;100952.53;7361849;19;20792;-63
2023/11/17 07:05:24;;;;;;;0.10;0.10;;;;;;;6.95;76.50;100972.41;7360563;19;20015;-63
2023/11/17 07:07:53;;;;;;;0.00;0.00;;;;;;;6.89;75.90;100971.53;7364612;19;20014;-63
2023/11/17 07:10:24;;;;;;;0.10;0.10;;;;;;;6.89;76.32;100972.41;7363921;19;20014;-61
2023/11/17 07:12:50;;;;;;;0.00;0.00;;;;;;;6.87;76.45;100968.09;7360213;19;20470;-63
2023/11/17 07:15:17;;;;;;;0.10;0.10;;;;;;;6.79;76.17;100959.47;7364021;19;20018;-63
2023/11/17 07:17:43;;;;;;;0.00;0.00;;;;;;;6.92;75.80;100982.78;7362096;19;20007;-63
2023/11/17 07:20:12;;;;;;;0.00;0.00;;;;;;;6.88;76.33;100986.25;7363372;19;20037;-63
2023/11/17 07:22:39;;;;;;;0.00;0.00;;;;;;;6.84;76.03;100991.47;7363321;19;20037;-63
2023/11/17 07:25:05;;;;;;;0.10;0.10;;;;;;;6.75;75.98;100974.19;7363914;19;20045;-63
2023/11/17 07:27:30;;;;;;;0.00;0.00;;;;;;;6.86;76.10;100992.34;7359963;19;20474;-63
2023/11/17 07:29:57;;;;;;;0.00;0.00;;;;;;;6.78;75.67;100992.34;7358863;19;20010;-63
2023/11/17 07:32:22;;;;;;;0.03;0.03;;;;;;;6.85;76.49;101003.59;7363513;19;20014;-63
2023/11/17 07:34:48;;;;;;;0.00;0.00;;;;;;;6.83;76.08;101005.31;7362088;19;20292;-63
2023/11/17 07:37:14;;;;;;;0.00;0.00;;;;;;;6.63;76.24;100969.03;7335183;19;20011;-63
2023/11/17 07:39:39;;;;;;;0.10;0.10;;;;;;;6.58;76.38;100988.91;7364608;19;20068;-63
2023/11/17 07:42:04;;;;;;;0.00;0.00;;;;;;;6.67;76.28;100991.50;7358282;19;20029;-63
2023/11/17 07:44:30;;;;;;;0.00;0.00;;;;;;;6.57;76.22;100989.78;7364261;19;20022;-63
2023/11/17 07:46:58;;;;;;;0.00;0.00;;;;;;;6.69;76.35;101019.19;7369650;19;20010;-63
2023/11/17 07:49:25;;;;;;;0.10;0.10;;;;;;;6.69;76.35;101021.78;7365190;19;20017;-63
2023/11/17 07:51:53;;;;;;;0.08;0.08;;;;;;;6.70;76.25;101033.03;7369915;19;20477;-64
2023/11/17 07:54:19;;;;;;;0.10;0.10;;;;;;;6.59;76.32;101021.78;7368716;19;20017;-63
2023/11/17 07:56:46;;;;;;;0.10;0.10;;;;;;;6.48;76.24;101001.91;7357920;19;20129;-63
2023/11/17 07:59:12;;;;;;;0.08;0.08;;;;;;;6.58;76.30;101014.88;7366030;19;20910;-64
2023/11/17 08:01:39;;;;;;;0.10;0.10;;;;;;;6.64;76.54;101033.91;7374445;19;20010;-63
2023/11/17 08:04:05;;;;;;;0.10;0.10;;;;;;;6.47;76.50;101015.75;7367669;19;20003;-64
2023/11/17 08:06:31;;;;;;;0.10;0.10;;;;;;;6.45;76.31;101022.69;7372886;19;20018;-63
2023/11/17 08:08:56;;;;;;;0.00;0.00;;;;;;;6.41;75.89;101020.94;7370269;19;20014;-63
2023/11/17 08:11:25;;;;;;;0.00;0.00;;;;;;;6.57;76.11;101037.38;7366574;19;20026;-64
2023/11/17 08:13:51;;;;;;;0.00;0.00;;;;;;;6.48;76.09;101030.44;7363412;19;20017;-63
2023/11/17 08:16:17;;;;;;;0.00;0.00;;;;;;;6.31;76.30;101011.44;7366756;19;20494;-63
2023/11/17 08:18:45;;;;;;;0.00;0.00;;;;;;;6.52;76.76;101043.41;7364656;19;20010;-63
2023/11/17 08:21:13;;;;;;;0.00;0.00;;;;;;;6.55;76.47;101053.81;7360542;19;20007;-63
2023/11/17 08:23:39;;;;;;;0.00;0.00;;;;;;;6.40;76.56;101034.78;7368651;19;20040;-63
2023/11/17 08:26:05;;;;;;;0.00;0.00;;;;;;;6.42;76.78;101043.41;7365403;19;20354;-63
2023/11/17 08:28:32;;;;;;;0.00;0.00;;;;;;;6.55;77.07;101071.97;7359151;19;20002;-64
2023/11/17 08:30:58;;;;;;;0.10;0.10;;;;;;;6.38;76.54;101049.47;7371437;19;20789;-64
2023/11/17 08:33:24;;;;;;;0.00;0.00;;;;;;;6.11;76.77;101003.66;7363971;19;20006;-63
2023/11/17 08:35:50;;;;;;;0.00;0.00;;;;;;;6.52;76.81;101075.41;7367030;19;20015;-63
2023/11/17 08:38:16;;;;;;;0.10;0.10;;;;;;;6.38;76.98;101066.75;7368047;19;20927;-63
2023/11/17 08:40:44;;;;;;;0.05;0.05;;;;;;;6.32;76.87;101057.25;7366505;19;20019;-64
2023/11/17 08:43:10;;;;;;;0.00;0.00;;;;;;;6.53;76.91;101084.06;7363877;19;20015;-63
2023/11/17 08:45:35;;;;;;;0.10;0.10;;;;;;;6.60;76.70;101099.66;7368780;19;20018;-64
2023/11/17 08:48:02;;;;;;;0.00;0.00;;;;;;;6.63;76.96;101104.81;7361142;19;20006;-64
2023/11/17 08:50:28;;;;;;;0.03;0.03;;;;;;;6.63;76.97;101116.94;7368120;19;20015;-63
2023/11/17 08:52:54;;;;;;;0.00;0.00;;;;;;;6.66;76.99;101116.94;7370374;19;20060;-63
2023/11/17 08:55:23;;;;;;;0.00;0.00;;;;;;;6.56;76.99;101104.84;7334472;19;20010;-63
2023/11/17 08:57:48;;;;;;;0.00;0.00;;;;;;;6.72;76.96;101132.50;7364550;19;20868;-64
2023/11/17 09:00:18;;;;;;;0.00;0.00;;;;;;;6.77;77.34;101143.75;7370740;19;20003;-63
2023/11/17 09:02:45;;;;;;;0.00;0.00;;;;;;;6.83;76.86;101138.56;7375286;19;20479;-63
2023/11/17 09:05:11;;;;;;;0.10;0.10;;;;;;;6.84;76.83;101140.28;7370571;19;20474;-64
2023/11/17 09:07:42;;;;;;;0.10;0.10;;;;;;;6.98;77.02;101141.13;7365178;19;20002;-63
2023/11/17 09:10:09;;;;;;;0.05;0.05;;;;;;;7.07;77.21;101142.88;7369128;19;20017;-63
2023/11/17 09:12:43;;;;;;;0.10;0.10;;;;;;;7.25;77.32;101158.44;7361970;19;20061;-63
2023/11/17 09:15:15;;;;;;;0.10;0.10;;;;;;;7.44;77.24;101156.66;7364102;19;20011;-63
2023/11/17 09:17:41;;;;;;;0.00;0.00;;;;;;;7.60;77.14;101159.19;7368621;19;20010;-64
2023/11/17 09:20:13;;;;;;;0.00;0.00;;;;;;;7.82;76.77;101167.81;7358126;19;20010;-64
2023/11/17 09:22:42;;;;;;;0.10;0.10;;;;;;;7.96;76.48;101182.47;7369547;19;20597;-63
2023/11/17 09:25:13;;;;;;;0.10;0.10;;;;;;;8.12;76.65;101180.69;7362004;19;20027;-64
2023/11/17 09:27:52;;;;;;;0.10;0.10;;;;;;;8.35;76.49;101183.13;7366820;19;20491;-64
2023/11/17 09:30:19;;;;;;;0.00;0.00;;;;;;;8.44;75.96;101175.31;7364138;19;20006;-63
2023/11/17 09:32:48;;;;;;;0.00;0.00;;;;;;;8.70;76.14;101185.53;7363151;19;20067;-63
2023/11/17 09:35:15;;;;;;;0.10;0.10;;;;;;;8.82;75.55;101189.81;7366834;19;20021;-63
2023/11/17 09:37:58;;;;;;;0.00;0.00;;;;;;;9.16;75.31;101198.19;7365533;19;20411;-64
2023/11/17 09:40:25;;;;;;;0.00;0.00;;;;;;;9.34;75.08;101211.06;7365537;19;20022;-64
2023/11/17 09:42:52;;;;;;;0.10;0.10;;;;;;;9.55;74.55;101210.00;7367734;19;20014;-64
2023/11/17 09:45:32;;;;;;;0.10;0.10;;;;;;;9.78;74.36;101208.84;7368612;19;20485;-64
2023/11/17 09:48:04;;;;;;;0.10;0.10;;;;;;;10.03;74.26;101215.50;7363991;19;20023;-63
2023/11/17 09:50:30;;;;;;;0.10;0.10;;;;;;;10.19;73.94;101212.72;7366353;19;20920;-63
2023/11/17 09:52:57;;;;;;;0.10;0.10;;;;;;;10.36;73.20;101213.41;7370063;19;20014;-64
2023/11/17 09:55:33;;;;;;;0.10;0.10;;;;;;;10.59;73.35;101213.97;7361093;19;20050;-64
2023/11/17 09:58:02;;;;;;;0.10;0.10;;;;;;;10.79;72.84;101215.38;7367234;19;20014;-64
2023/11/17 10:00:28;;;;;;;0.10;0.10;;;;;;;10.93;72.50;101213.41;7359740;19;20017;-64
2023/11/17 10:02:56;;;;;;;0.10;0.10;;;;;;;11.14;72.08;101226.13;7337530;19;20014;-64
2023/11/17 10:05:23;;;;;;;0.10;0.10;;;;;;;11.35;72.06;101226.66;7344273;19;20010;-63
2023/11/17 10:07:51;;;;;;;0.10;0.10;;;;;;;11.54;71.67;101222.81;7363356;19;20123;-64
2023/11/17 10:10:19;;;;;;;0.10;0.10;;;;;;;11.67;71.43;101213.88;7358224;19;20017;-63
2023/11/17 10:12:50;;;;;;;0.10;0.10;;;;;;;11.92;70.85;101219.53;7374660;19;20014;-64
2023/11/17 10:15:37;;;;;;;0.10;0.10;;;;;;;12.09;70.63;101220.94;7361892;19;20022;-64
2023/11/17 10:18:06;;;;;;;0.05;0.05;;;;;;;12.22;71.09;101200.59;7364032;19;20011;-64
2023/11/17 10:20:34;;;;;;;0.10;0.10;;;;;;;12.49;70.42;101210.47;7363550;19;20081;-64
2023/11/17 10:23:00;;;;;;;0.10;0.10;;;;;;;12.56;69.81;101200.69;7367274;19;20011;-64
2023/11/17 10:25:27;;;;;;;0.10;0.10;;;;;;;12.69;69.73;101184.66;7365510;19;20014;-64
2023/11/17 10:27:53;;;;;;;0.10;0.10;;;;;;;12.93;69.80;101211.19;7358000;19;20031;-64
2023/11/17 10:30:22;;;;;;;0.05;0.05;;;;;;;13.10;69.51;101208.16;7361550;19;20014;-64
2023/11/17 10:33:14;;;;;;;0.10;0.10;;;;;;;13.36;69.52;101199.66;7365738;19;20526;-64
2023/11/17 10:35:43;;;;;;;0.10;0.10;;;;;;;13.44;69.25;101200.31;7359617;19;20006;-64
2023/11/17 10:38:16;;;;;;;0.10;0.10;;;;;;;13.65;68.69;101196.25;7358182;19;20021;-64
2023/11/17 10:40:41;;;;;;;0.10;0.10;;;;;;;13.62;68.84;101176.19;7354411;19;20994;-64
2023/11/17 10:43:11;;;;;;;0.10;0.10;;;;;;;13.89;69.06;101200.81;7359647;19;20010;-64
2023/11/17 10:45:39;;;;;;;0.10;0.10;;;;;;;13.93;68.30;101202.44;7344778;19;20126;-64
2023/11/17 10:48:08;;;;;;;0.10;0.10;;;;;;;14.04;68.88;101199.53;7363536;19;20042;-64
2023/11/17 10:50:37;;;;;;;0.10;0.10;;;;;;;14.14;68.87;101206.22;7366996;19;20319;-64
2023/11/17 10:53:14;;;;;;;0.00;0.00;;;;;;;14.23;69.23;101198.06;7366779;19;20017;-64
2023/11/17 10:55:42;;;;;;;0.10;0.10;;;;;;;14.18;68.75;101194.69;7330614;19;20498;-64
2023/11/17 10:58:08;;;;;;;0.10;0.10;;;;;;;14.05;68.65;101169.72;7366426;19;20034;-64
2023/11/17 11:00:34;;;;;;;0.10;0.10;;;;;;;14.26;68.49;101200.59;7364695;19;20010;-64
2023/11/17 11:03:03;;;;;;;0.10;0.10;;;;;;;14.33;68.26;101200.41;7365120;19;20085;-64
2023/11/17 11:05:29;;;;;;;0.10;0.10;;;;;;;14.36;68.61;101192.44;7354260;19;20010;-64
2023/11/17 11:07:56;;;;;;;0.10;0.10;;;;;;;14.40;68.42;101197.56;7368393;19;20498;-64
2023/11/17 11:10:26;;;;;;;0.10;0.10;;;;;;;14.50;68.63;101204.28;7367168;19;20010;-64
2023/11/17 11:12:52;;;;;;;0.10;0.10;;;;;;;14.51;68.69;101210.41;7369422;19;20010;-64
2023/11/17 11:15:17;;;;;;;0.10;0.10;;;;;;;14.54;68.51;101207.66;7357746;19;20017;-64
2023/11/17 11:17:57;;;;;;;0.10;0.10;;;;;;;14.65;68.97;101212.56;7360176;19;20367;-64
2023/11/17 11:20:24;;;;;;;0.10;0.10;;;;;;;14.66;69.07;101214.31;7362881;19;20105;-64
2023/11/17 11:22:55;;;;;;;0.10;0.10;;;;;;;14.64;69.29;101203.84;7361826;19;20006;-64
2023/11/17 11:25:22;;;;;;;0.10;0.10;;;;;;;14.66;69.23;101209.91;7357597;19;20014;-64
2023/11/17 11:27:48;;;;;;;0.10;0.10;;;;;;;14.74;68.92;101218.41;7354573;19;20014;-64
2023/11/17 11:30:15;;;;;;;0.00;0.00;;;;;;;14.59;69.39;101191.75;7365655;19;20034;-63
2023/11/17 11:32:44;;;;;;;0.10;0.10;;;;;;;14.83;69.44;101226.94;7361667;19;20011;-64
2023/11/17 11:35:10;;;;;;;0.10;0.10;;;;;;;14.69;69.29;101204.56;7360457;19;20003;-64
2023/11/17 11:37:37;;;;;;;0.10;0.10;;;;;;;14.91;69.35;101225.78;7365598;19;20721;-64